createdAt,value
2019-02-12T00:03:30.210Z,49.00
2019-02-12T00:08:35.969Z,49.00
2019-02-12T00:13:42.030Z,48.90
2019-02-12T00:18:46.554Z,48.90
2019-02-12T00:23:50.731Z,49.00
2019-02-12T00:28:55.011Z,49.10
2019-02-12T00:33:59.390Z,49.30
2019-02-12T00:39:05.610Z,49.80
2019-02-12T00:44:11.555Z,50.60
2019-02-12T00:49:15.863Z,50.80
2019-02-12T00:54:20.545Z,51.40
2019-02-12T00:59:24.734Z,51.70
2019-02-12T01:04:29.065Z,51.70
2019-02-12T01:09:34.437Z,51.70
2019-02-12T01:14:38.610Z,51.60
2019-02-12T01:19:42.786Z,52.00
2019-02-12T01:24:47.029Z,51.90
2019-02-12T01:29:51.313Z,52.00
2019-02-12T01:34:55.663Z,52.00
2019-02-12T01:40:00.356Z,51.90
2019-02-12T01:45:07.147Z,51.80
2019-02-12T01:50:12.939Z,51.70
2019-02-12T01:55:17.294Z,51.60
2019-02-12T02:00:22.019Z,51.40
2019-02-12T02:05:26.397Z,51.60
2019-02-12T02:10:30.596Z,51.60
2019-02-12T02:15:34.965Z,51.40
2019-02-12T02:20:39.645Z,51.30
2019-02-12T02:25:44.838Z,51.20
2019-02-12T02:30:49.215Z,51.20
2019-02-12T02:35:53.794Z,50.90
2019-02-12T02:40:58.076Z,50.70
2019-02-12T02:46:02.270Z,50.30
2019-02-12T02:51:06.721Z,50.00
2019-02-12T02:56:10.895Z,49.80
2019-02-12T03:01:15.446Z,49.70
2019-02-12T03:06:20.226Z,50.40
2019-02-12T03:11:24.469Z,50.60
2019-02-12T03:16:28.738Z,50.60
2019-02-12T03:21:33.110Z,50.80
2019-02-12T03:26:37.291Z,50.20
2019-02-12T03:31:41.576Z,49.90
2019-02-12T03:36:46.235Z,50.40
2019-02-12T03:41:51.001Z,50.40
2019-02-12T03:46:55.780Z,50.20
2019-02-12T03:52:00.067Z,50.40
2019-02-12T03:57:04.923Z,49.90
2019-02-12T04:02:10.382Z,49.60
2019-02-12T04:07:14.939Z,49.80
2019-02-12T04:12:19.416Z,49.70
2019-02-12T04:17:23.686Z,49.90
2019-02-12T04:22:28.068Z,49.60
2019-02-12T04:27:32.351Z,49.60
2019-02-12T04:32:36.518Z,49.50
2019-02-12T04:37:41.600Z,49.50
2019-02-12T04:42:46.453Z,50.20
2019-02-12T04:47:50.655Z,49.20
2019-02-12T04:52:54.830Z,49.20
2019-02-12T04:57:59.243Z,48.90
2019-02-12T05:03:04.685Z,48.70
2019-02-12T05:08:10.167Z,48.70
2019-02-12T05:13:15.230Z,48.80
2019-02-12T05:18:19.634Z,48.80
2019-02-12T05:23:24.013Z,48.70
2019-02-12T05:28:28.180Z,48.60
2019-02-12T05:33:32.542Z,48.00
2019-02-12T05:38:37.003Z,48.10
2019-02-12T05:43:41.252Z,48.00
2019-02-12T05:48:45.430Z,47.90
2019-02-12T05:53:49.590Z,47.80
2019-02-12T05:58:53.946Z,47.70
2019-02-12T06:03:58.229Z,48.00
2019-02-12T06:09:02.552Z,47.80
2019-02-12T06:14:06.789Z,47.70
2019-02-12T06:19:11.650Z,47.40
2019-02-12T06:24:16.426Z,48.00
2019-02-12T06:29:20.685Z,47.20
2019-02-12T06:34:24.850Z,47.10
2019-02-12T06:39:29.891Z,47.20
2019-02-12T06:44:34.069Z,47.20
2019-02-12T06:49:38.551Z,47.00
2019-02-12T06:54:43.139Z,46.90
2019-02-12T06:59:47.304Z,46.80
2019-02-12T07:04:51.477Z,46.90
2019-02-12T07:10:02.835Z,46.80
2019-02-12T07:15:18.540Z,46.90
2019-02-12T07:20:56.165Z,47.10
2019-02-12T07:26:44.715Z,46.80
2019-02-12T07:32:36.098Z,46.80
2019-02-12T07:38:36.301Z,46.80
2019-02-12T07:44:23.253Z,46.70
2019-02-12T07:50:05.997Z,46.60
2019-02-12T07:55:43.094Z,46.70
2019-02-12T08:01:04.662Z,46.80
2019-02-12T08:06:44.918Z,46.80
2019-02-12T08:12:24.369Z,46.80
2019-02-12T08:18:05.678Z,46.60
2019-02-12T08:23:30.089Z,46.60
2019-02-12T08:28:56.947Z,47.00
2019-02-12T08:34:34.063Z,47.00
2019-02-12T08:40:21.018Z,47.30
2019-02-12T08:46:15.883Z,47.90
2019-02-12T08:51:58.874Z,47.50
2019-02-12T08:57:46.710Z,47.40
2019-02-12T09:03:23.575Z,47.70
2019-02-12T09:09:14.280Z,48.30
2019-02-12T09:15:05.859Z,47.60
2019-02-12T09:20:37.261Z,47.70
2019-02-12T09:26:25.525Z,47.80
2019-02-12T09:32:30.245Z,47.80
2019-02-12T09:38:12.162Z,47.80
2019-02-12T09:44:10.060Z,47.90
2019-02-12T09:49:55.926Z,47.80
2019-02-12T09:55:16.727Z,47.90
2019-02-12T10:00:36.098Z,48.00
2019-02-12T10:06:46.699Z,47.90
2019-02-12T10:12:31.693Z,47.90
2019-02-12T10:18:34.357Z,47.90
2019-02-12T10:24:19.851Z,48.00
2019-02-12T10:29:48.503Z,48.00
2019-02-12T10:34:52.823Z,47.80
2019-02-12T10:39:58.200Z,47.90
2019-02-12T10:45:02.873Z,47.90
2019-02-12T10:50:08.593Z,48.10
2019-02-12T10:55:14.325Z,47.80
2019-02-12T11:00:20.073Z,47.90
2019-02-12T11:05:25.804Z,46.80
2019-02-12T11:10:31.526Z,46.30
2019-02-12T11:15:37.247Z,45.80
2019-02-12T11:20:41.831Z,46.20
2019-02-12T11:25:47.046Z,45.40
2019-02-12T11:30:52.254Z,45.10
2019-02-12T11:35:56.884Z,44.90
2019-02-12T11:41:02.662Z,44.80
2019-02-12T11:46:08.065Z,44.50
2019-02-12T11:51:12.557Z,44.50
2019-02-12T11:56:17.415Z,44.60
2019-02-12T12:01:22.883Z,44.80
2019-02-12T12:06:27.551Z,45.00
2019-02-12T12:11:32.632Z,45.00
2019-02-12T12:16:37.722Z,44.90
2019-02-12T12:21:42.198Z,44.80
2019-02-12T12:26:46.698Z,44.90
2019-02-12T12:31:51.499Z,44.60
2019-02-12T12:36:55.895Z,44.70
2019-02-12T12:42:01.606Z,44.70
2019-02-12T12:47:06.530Z,44.70
2019-02-12T12:52:11.087Z,44.70
2019-02-12T12:57:15.673Z,44.60
2019-02-12T13:02:19.862Z,44.50
2019-02-12T13:07:25.368Z,44.30
2019-02-12T13:12:30.312Z,44.20
2019-02-12T13:17:35.337Z,44.10
2019-02-12T13:22:40.650Z,44.00
2019-02-12T13:27:44.964Z,43.90
2019-02-12T13:32:49.162Z,43.90
2019-02-12T13:37:53.594Z,43.90
2019-02-12T13:42:58.390Z,43.80
2019-02-12T13:48:02.865Z,43.90
2019-02-12T13:53:07.362Z,43.80
2019-02-12T13:58:13.085Z,43.70
2019-02-12T14:03:22.441Z,43.80
2019-02-12T14:08:23.993Z,43.80
2019-02-12T14:13:28.179Z,43.90
2019-02-12T14:18:32.394Z,43.80
2019-02-12T14:23:36.584Z,43.80
2019-02-12T14:28:43.082Z,43.80
2019-02-12T14:33:47.285Z,43.80
2019-02-12T14:38:53.436Z,43.60
2019-02-12T14:43:57.930Z,43.70
2019-02-12T14:49:02.238Z,43.60
2019-02-12T14:54:07.404Z,43.60
2019-02-12T14:59:13.323Z,43.60
2019-02-12T15:04:18.805Z,43.50
2019-02-12T15:09:22.982Z,43.50
2019-02-12T15:14:28.692Z,43.50
2019-02-12T15:19:33.269Z,43.50
2019-02-12T15:24:37.750Z,43.40
2019-02-12T15:29:42.438Z,43.60
2019-02-12T15:34:46.615Z,43.50
2019-02-12T15:39:51.266Z,43.50
2019-02-12T15:44:55.849Z,43.50
2019-02-12T15:50:00.265Z,43.60
2019-02-12T15:55:08.553Z,43.60
2019-02-12T16:00:15.682Z,43.60
2019-02-12T16:05:22.337Z,43.70
2019-02-12T16:10:26.618Z,43.70
2019-02-12T16:15:31.014Z,44.30
2019-02-12T16:25:30.079Z,45.20
2019-02-12T16:30:34.843Z,44.20
2019-02-12T16:35:39.181Z,45.00
2019-02-12T16:40:44.472Z,45.60
2019-02-12T16:46:13.852Z,46.10
2019-02-12T16:51:18.132Z,46.40
2019-02-12T16:56:22.376Z,46.50
2019-02-12T17:01:26.583Z,46.60
2019-02-12T17:06:31.401Z,47.00
2019-02-12T17:11:36.141Z,46.80
2019-02-12T17:16:40.511Z,46.90
2019-02-12T17:21:45.650Z,46.80
2019-02-12T17:26:50.259Z,46.80
2019-02-12T17:31:54.575Z,46.80
2019-02-12T17:36:58.869Z,47.10
2019-02-12T17:42:03.159Z,47.00
2019-02-12T17:47:07.570Z,47.10
2019-02-12T17:52:12.476Z,47.20
2019-02-12T17:57:17.569Z,47.30
2019-02-12T18:02:23.092Z,47.40
2019-02-12T18:07:27.447Z,47.60
2019-02-12T18:12:32.218Z,47.60
2019-02-12T18:17:36.576Z,47.90
2019-02-12T18:22:40.823Z,48.70
2019-02-12T18:27:45.013Z,47.90
2019-02-12T18:32:49.434Z,47.90
2019-02-12T18:37:53.838Z,47.80
2019-02-12T18:42:58.301Z,47.80
2019-02-12T18:48:02.843Z,47.80
2019-02-12T18:53:08.058Z,47.80
2019-02-12T18:58:16.601Z,47.70
2019-02-12T19:03:21.553Z,47.70
2019-02-12T19:08:25.896Z,47.70
2019-02-12T19:13:30.366Z,47.60
2019-02-12T19:18:34.743Z,47.50
2019-02-12T19:23:39.128Z,47.50
2019-02-12T19:28:43.465Z,47.60
2019-02-12T19:33:48.324Z,47.60
2019-02-12T19:38:53.171Z,47.70
2019-02-12T19:44:02.215Z,47.80
2019-02-12T19:49:09.741Z,47.70
2019-02-12T19:54:15.594Z,47.60
2019-02-12T19:59:20.906Z,47.50
2019-02-12T20:04:25.424Z,47.40
2019-02-12T20:09:29.923Z,47.20
2019-02-12T20:14:34.438Z,47.10
2019-02-12T20:19:38.700Z,47.20
2019-02-12T20:24:43.300Z,47.40
2019-02-12T20:29:47.750Z,47.30
2019-02-12T20:34:52.199Z,47.30
2019-02-12T20:39:56.691Z,47.30
2019-02-12T20:45:01.523Z,47.30
2019-02-12T20:50:08.178Z,47.30
2019-02-12T20:55:14.113Z,47.20
2019-02-12T21:00:19.368Z,47.20
2019-02-12T21:05:26.398Z,47.30
2019-02-12T21:10:30.767Z,47.20
2019-02-12T21:15:35.105Z,47.10
2019-02-12T21:20:39.642Z,47.10
2019-02-12T21:25:44.217Z,47.00
2019-02-12T21:30:48.599Z,47.10
2019-02-12T21:35:52.949Z,47.00
2019-02-12T21:40:57.524Z,47.00
2019-02-12T21:46:02.017Z,47.00
2019-02-12T21:51:06.287Z,47.00
2019-02-12T21:56:10.682Z,47.00
2019-02-12T22:01:17.265Z,47.20
2019-02-12T22:06:22.177Z,46.70
2019-02-12T22:11:26.672Z,47.50
2019-02-12T22:16:31.177Z,47.60
2019-02-12T22:21:37.143Z,47.80
2019-02-12T22:26:41.432Z,47.80
2019-02-12T22:31:45.957Z,47.80
2019-02-12T22:36:50.792Z,47.80
2019-02-12T22:41:55.605Z,48.00
2019-02-12T22:47:00.195Z,47.70
2019-02-12T22:52:04.787Z,47.70
2019-02-12T22:57:09.838Z,47.70
2019-02-12T23:02:15.661Z,47.80
2019-02-12T23:07:20.039Z,47.90
2019-02-12T23:12:24.396Z,48.00
2019-02-12T23:17:28.912Z,48.00
2019-02-12T23:22:33.611Z,48.10
2019-02-12T23:27:38.006Z,48.10
2019-02-12T23:32:42.369Z,48.10
2019-02-12T23:37:47.228Z,48.20
2019-02-12T23:42:52.070Z,48.20
2019-02-12T23:47:56.828Z,48.20
2019-02-12T23:53:01.680Z,48.20
2019-02-12T23:58:07.443Z,48.20
